Time;durP1;ratioP1;P1;durP2;ratioP2;P2;SDS_P1;SDS_P2;PMS_P1;PMS_P2;Temp;Humidity;BMP_temperature;BMP_pressure;BME280_temperature;BME280_humidity;BME280_pressure;Samples;Min_cycle;Max_cycle;Signal;HPM_P1;HPM_P2
2022/08/06 00:02:39;;;;;;;;;;;;;;;23.49;46.26;101664.22;4995818;28;4131;-72
2022/08/06 00:05:07;;;;;;;;;;;;;;;23.45;45.92;101670.53;4997536;28;4189;-72
2022/08/06 00:07:34;;;;;;;;;;;;;;;23.35;45.85;101672.97;4991773;28;4294;-71
2022/08/06 00:10:10;;;;;;;;;;;;;;;23.35;46.17;101688.16;4995180;28;5521;-72
2022/08/06 00:12:37;;;;;;;;;;;;;;;23.37;46.04;101681.75;4996122;28;4204;-72
2022/08/06 00:15:03;;;;;;;;;;;;;;;23.34;46.19;101678.00;4994169;28;4288;-72
2022/08/06 00:17:42;;;;;;;;;;;;;;;23.34;45.98;101695.34;4995269;28;5227;-72
2022/08/06 00:20:09;;;;;;;;;;;;;;;23.37;46.07;101711.38;4997154;28;4166;-72
2022/08/06 00:22:36;;;;;;;;;;;;;;;23.36;45.98;101715.66;4995779;28;4299;-72
2022/08/06 00:25:02;;;;;;;;;;;;;;;23.33;45.80;101722.00;4993402;28;4176;-72
2022/08/06 00:27:30;;;;;;;;;;;;;;;23.33;45.89;101722.00;4993908;28;4186;-72
2022/08/06 00:30:08;;;;;;;;;;;;;;;23.31;45.68;101722.66;4996973;28;4337;-72
2022/08/06 00:32:47;;;;;;;;;;;;;;;23.29;45.48;101722.53;4997578;28;5165;-72
2022/08/06 00:35:17;;;;;;;;;;;;;;;23.23;45.69;101725.16;4997159;28;4198;-72
2022/08/06 00:37:43;;;;;;;;;;;;;;;23.23;45.69;101725.16;4995935;28;5290;-72
2022/08/06 00:40:25;;;;;;;;;;;;;;;23.25;45.52;101724.50;4994257;28;4341;-72
2022/08/06 00:42:54;;;;;;;;;;;;;;;23.20;45.79;101718.53;4993705;28;4213;-72
2022/08/06 00:45:20;;;;;;;;;;;;;;;23.19;45.92;101719.19;4996266;28;4333;-72
2022/08/06 00:47:50;;;;;;;;;;;;;;;23.20;45.68;101714.88;4999738;28;4182;-72
2022/08/06 00:50:28;;;;;;;;;;;;;;;23.20;45.63;101732.22;5002841;28;4195;-72
2022/08/06 00:52:55;;;;;;;;;;;;;;;23.18;45.70;101729.22;5001194;28;4244;-72
2022/08/06 00:55:21;;;;;;;;;;;;;;;23.14;45.64;101723.28;5000727;28;5170;-72
2022/08/06 00:58:01;;;;;;;;;;;;;;;23.11;45.61;101724.56;5000169;28;4229;-74
2022/08/06 01:00:27;;;;;;;;;;;;;;;23.11;45.74;101724.56;5000693;28;4411;-72
2022/08/06 01:02:56;;;;;;;;;;;;;;;23.07;45.79;101724.38;5003561;28;4050;-72
2022/08/06 01:05:22;;;;;;;;;;;;;;;23.04;45.68;101729.28;4998977;28;4238;-71
2022/08/06 01:08:08;;;;;;;;;;;;;;;23.06;45.51;101731.53;5000452;28;5229;-72
2022/08/06 01:10:35;;;;;;;;;;;;;;;23.02;45.60;101731.31;4998746;28;4092;-72
2022/08/06 01:13:08;;;;;;;;;;;;;;;22.95;45.64;101736.78;5000954;28;4113;-72
2022/08/06 01:16:17;;;;;;;;;;;;;;;22.92;45.94;101738.06;4999957;28;4141;-72
2022/08/06 01:19:15;;;;;;;;;;;;;;;22.94;45.52;101755.50;4998526;28;4198;-71
2022/08/06 01:22:04;;;;;;;;;;;;;;;22.91;45.63;101748.13;5001649;28;4118;-72
2022/08/06 01:24:54;;;;;;;;;;;;;;;22.83;45.77;101747.72;5000265;28;4176;-71
2022/08/06 01:27:21;;;;;;;;;;;;;;;22.85;45.77;101750.72;4996657;28;5309;-71
2022/08/06 01:29:56;;;;;;;;;;;;;;;22.94;45.59;101752.63;4995382;28;4091;-72
2022/08/06 01:32:32;;;;;;;;;;;;;;;22.96;45.94;101749.09;4999446;28;4190;-71
2022/08/06 01:34:59;;;;;;;;;;;;;;;22.93;45.91;101745.34;5000819;28;4297;-72
2022/08/06 01:37:30;;;;;;;;;;;;;;;22.98;45.96;101741.28;5000736;28;5224;-71
2022/08/06 01:40:06;;;;;;;;;;;;;;;22.95;45.93;101742.56;4999836;28;4167;-72
2022/08/06 01:42:36;;;;;;;;;;;;;;;22.97;45.84;101739.03;4998837;28;4400;-72
2022/08/06 01:45:03;;;;;;;;;;;;;;;22.95;45.98;101736.78;5000197;28;4236;-71
2022/08/06 01:47:30;;;;;;;;;;;;;;;22.96;46.08;101734.66;4998919;28;4356;-72
2022/08/06 01:50:16;;;;;;;;;;;;;;;22.94;45.97;101729.50;4995793;28;4164;-71
2022/08/06 01:52:53;;;;;;;;;;;;;;;22.96;45.77;101734.66;4999112;28;4253;-71
2022/08/06 01:55:26;;;;;;;;;;;;;;;22.93;45.94;101742.47;5000203;28;4226;-71
2022/08/06 01:58:07;;;;;;;;;;;;;;;22.89;45.89;101739.38;4997595;28;4205;-71
2022/08/06 02:00:54;;;;;;;;;;;;;;;22.85;46.07;101750.72;5000119;28;5227;-71
2022/08/06 02:03:28;;;;;;;;;;;;;;;22.89;46.17;101736.47;4997988;28;4172;-71
2022/08/06 02:06:18;;;;;;;;;;;;;;;22.89;45.89;101739.38;5013395;28;4197;-71
2022/08/06 02:08:54;;;;;;;;;;;;;;;22.89;45.79;101742.25;4999285;28;4418;-71
2022/08/06 02:11:21;;;;;;;;;;;;;;;22.85;45.91;101753.59;4996435;28;4220;-71
2022/08/06 02:14:07;;;;;;;;;;;;;;;22.83;45.87;101756.38;5002796;28;5228;-71
2022/08/06 02:16:35;;;;;;;;;;;;;;;22.84;45.99;101757.91;4997005;28;5392;-72
2022/08/06 02:19:07;;;;;;;;;;;;;;;22.81;45.92;101762.06;4994773;28;4167;-71
2022/08/06 02:21:38;;;;;;;;;;;;;;;22.87;46.13;101768.16;4997259;28;4185;-71
2022/08/06 02:24:04;;;;;;;;;;;;;;;22.81;45.80;101762.06;4998574;28;5484;-71
2022/08/06 02:26:33;;;;;;;;;;;;;;;22.81;45.86;101764.94;4996559;28;4220;-71
2022/08/06 02:29:00;;;;;;;;;;;;;;;22.77;46.20;101768.38;5000179;28;5348;-71
2022/08/06 02:31:26;;;;;;;;;;;;;;;22.76;46.07;101766.13;5003662;28;4242;-71
2022/08/06 02:33:52;;;;;;;;;;;;;;;22.76;45.84;101757.47;4998393;28;4264;-71
2022/08/06 02:36:40;;;;;;;;;;;;;;;22.75;45.91;101776.19;5001581;28;4122;-71
2022/08/06 02:39:20;;;;;;;;;;;;;;;22.76;45.97;101783.47;4998647;28;4280;-70
2022/08/06 02:42:13;;;;;;;;;;;;;;;22.76;45.77;101792.13;4998442;28;4205;-71
2022/08/06 02:44:58;;;;;;;;;;;;;;;22.74;45.72;101789.13;4996964;28;4247;-70
2022/08/06 02:47:29;;;;;;;;;;;;;;;22.72;45.60;101794.78;4998406;28;4244;-71
2022/08/06 02:50:16;;;;;;;;;;;;;;;22.73;45.90;101796.31;5000702;28;4380;-71
2022/08/06 02:52:53;;;;;;;;;;;;;;;22.72;45.67;101789.78;4999734;28;4184;-72
2022/08/06 02:55:25;;;;;;;;;;;;;;;22.70;45.96;101797.56;5011935;28;4179;-73
2022/08/06 02:58:05;;;;;;;;;;;;;;;22.68;45.69;101806.16;4995908;28;4323;-72
2022/08/06 03:00:33;;;;;;;;;;;;;;;22.72;45.74;101803.47;5003151;28;4212;-71
2022/08/06 03:03:00;;;;;;;;;;;;;;;22.71;45.72;101799.09;4998828;28;4108;-71
2022/08/06 03:05:26;;;;;;;;;;;;;;;22.68;45.89;101800.38;4997154;28;6284;-72
2022/08/06 03:08:16;;;;;;;;;;;;;;;22.68;45.71;101800.38;4997437;28;4197;-72
2022/08/06 03:10:43;;;;;;;;;;;;;;;22.67;45.78;101798.88;4996921;28;4218;-71
2022/08/06 03:13:11;;;;;;;;;;;;;;;22.64;45.71;101805.94;5001688;28;4044;-71
2022/08/06 03:15:38;;;;;;;;;;;;;;;22.67;45.80;101811.16;4998737;28;4194;-72
2022/08/06 03:18:24;;;;;;;;;;;;;;;22.63;45.91;101810.19;4995457;28;4203;-71
2022/08/06 03:20:53;;;;;;;;;;;;;;;22.63;45.91;101818.88;4995203;28;5547;-71
2022/08/06 03:23:19;;;;;;;;;;;;;;;22.61;46.14;101822.41;4997234;28;4144;-72
2022/08/06 03:25:46;;;;;;;;;;;;;;;22.56;45.97;101824.34;4997966;28;4072;-71
2022/08/06 03:28:12;;;;;;;;;;;;;;;22.55;46.35;101827.84;4996551;28;5531;-71
2022/08/06 03:30:48;;;;;;;;;;;;;;;22.58;46.37;101829.44;4996748;28;5249;-72
2022/08/06 03:33:20;;;;;;;;;;;;;;;22.59;46.22;101840.38;4996875;28;5226;-71
2022/08/06 03:36:07;;;;;;;;;;;;;;;22.56;46.18;101838.00;5001523;28;4213;-72
2022/08/06 03:38:37;;;;;;;;;;;;;;;22.55;45.92;101845.19;4993184;28;5459;-71
2022/08/06 03:41:04;;;;;;;;;;;;;;;22.56;46.29;101841.66;4996160;28;4421;-71
2022/08/06 03:43:33;;;;;;;;;;;;;;;22.53;45.99;101847.94;4996962;28;4154;-71
2022/08/06 03:46:49;;;;;;;;;;;;;;;22.48;46.32;101847.00;4995256;28;4104;-71
2022/08/06 03:49:19;;;;;;;;;;;;;;;22.49;46.27;101850.63;4984092;28;4204;-72
2022/08/06 03:51:52;;;;;;;;;;;;;;;22.44;46.09;101864.09;5001770;28;4226;-72
2022/08/06 03:54:29;;;;;;;;;;;;;;;22.47;46.30;101859.94;4999128;28;4128;-71
2022/08/06 03:57:00;;;;;;;;;;;;;;;22.46;46.04;101861.31;4996366;28;4174;-72
2022/08/06 03:59:36;;;;;;;;;;;;;;;22.44;46.02;101869.84;5000157;28;5179;-71
2022/08/06 04:02:09;;;;;;;;;;;;;;;22.46;46.23;101860.56;4994653;28;4266;-71
2022/08/06 04:04:55;;;;;;;;;;;;;;;22.46;46.25;101869.97;4996442;28;4149;-71
2022/08/06 04:07:22;;;;;;;;;;;;;;;22.44;46.12;101872.75;4995457;28;4306;-72
2022/08/06 04:10:08;;;;;;;;;;;;;;;22.43;46.07;101874.16;4993119;28;4203;-71
2022/08/06 04:12:36;;;;;;;;;;;;;;;22.44;45.97;101869.13;4995498;28;4206;-71
2022/08/06 04:15:22;;;;;;;;;;;;;;;22.40;46.25;101875.41;4993454;28;4256;-71
2022/08/06 04:17:49;;;;;;;;;;;;;;;22.36;46.25;101884.59;4997748;28;4307;-72
2022/08/06 04:20:18;;;;;;;;;;;;;;;22.35;46.16;101879.47;4993880;28;4021;-71
2022/08/06 04:23:04;;;;;;;;;;;;;;;22.32;46.58;101887.25;5000376;28;4240;-71
2022/08/06 04:25:40;;;;;;;;;;;;;;;22.35;46.38;101891.00;4999260;28;4210;-71
2022/08/06 04:28:09;;;;;;;;;;;;;;;22.28;46.57;101895.69;5005516;28;5300;-71
2022/08/06 04:30:35;;;;;;;;;;;;;;;22.28;46.52;101897.84;4999912;28;4360;-71
2022/08/06 04:33:04;;;;;;;;;;;;;;;22.31;46.59;101887.91;4999563;28;5368;-71
2022/08/06 04:35:31;;;;;;;;;;;;;;;22.25;46.60;101902.00;4999023;28;4209;-72
2022/08/06 04:38:17;;;;;;;;;;;;;;;22.26;46.43;101901.34;5004786;28;4282;-71
2022/08/06 04:40:55;;;;;;;;;;;;;;;22.23;46.63;101907.66;4999834;28;4155;-71
2022/08/06 04:43:21;;;;;;;;;;;;;;;22.28;46.27;101909.38;5000777;28;4230;-71
2022/08/06 04:46:04;;;;;;;;;;;;;;;22.24;46.68;101915.69;5003092;28;4301;-71
2022/08/06 04:48:45;;;;;;;;;;;;;;;22.25;46.35;101916.44;4997070;28;4193;-71
2022/08/06 04:51:13;;;;;;;;;;;;;;;22.27;46.54;101922.31;5000215;28;4197;-71
2022/08/06 04:53:59;;;;;;;;;;;;;;;22.28;46.58;101932.47;5000640;28;4198;-71
2022/08/06 04:56:26;;;;;;;;;;;;;;;22.23;46.86;101928.59;4999822;28;4200;-72
2022/08/06 04:59:02;;;;;;;;;;;;;;;22.27;46.53;101942.50;5000558;28;4211;-71
2022/08/06 05:01:29;;;;;;;;;;;;;;;22.33;46.42;101937.06;5000201;28;4238;-71
2022/08/06 05:04:06;;;;;;;;;;;;;;;22.22;46.67;101947.31;5002809;28;5402;-71
2022/08/06 05:06:40;;;;;;;;;;;;;;;22.18;46.53;101950.69;5003096;28;4133;-71
2022/08/06 05:09:23;;;;;;;;;;;;;;;22.22;46.66;101952.31;4996722;28;4198;-71
2022/08/06 05:12:11;;;;;;;;;;;;;;;22.32;46.35;101958.66;4998810;28;4236;-71
2022/08/06 05:14:42;;;;;;;;;;;;;;;22.21;46.69;101959.44;5000771;28;4138;-71
2022/08/06 05:17:09;;;;;;;;;;;;;;;22.15;46.63;101962.72;4999315;28;4082;-70
2022/08/06 05:19:38;;;;;;;;;;;;;;;22.11;46.72;101971.91;4997850;28;4195;-70
2022/08/06 05:22:05;;;;;;;;;;;;;;;22.16;46.89;101972.91;5003788;28;4177;-70
2022/08/06 05:24:38;;;;;;;;;;;;;;;22.17;46.67;101983.81;4998515;28;4170;-71
2022/08/06 05:27:24;;;;;;;;;;;;;;;21.52;47.96;101988.69;4997798;28;6400;-66
2022/08/06 05:30:11;;;;;;;;;;;;;;;20.68;49.05;101992.94;4993676;28;4273;-63
2022/08/06 05:32:40;;;;;;;;;;;;;;;20.60;49.84;101995.31;4991728;28;4126;-75
2022/08/06 05:35:07;;;;;;;;;;;;;;;20.28;51.79;101994.69;4984345;28;5307;-84
2022/08/06 05:37:34;;;;;;;;;;;;;;;19.89;53.39;101997.16;5002301;28;4169;-80
2022/08/06 05:40:21;;;;;;;;;;;;;;;20.01;52.50;101997.97;5000352;28;4170;-76
2022/08/06 05:43:00;;;;;;;;;;;;;;;19.66;53.17;102007.13;4999667;28;4316;-75
2022/08/06 05:45:28;;;;;;;;;;;;;;;19.67;53.09;102000.00;5001236;28;4216;-68
2022/08/06 05:47:55;;;;;;;;;;;;;;;20.18;52.36;101999.03;4997995;28;4268;-67
2022/08/06 05:50:22;;;;;;;;;;;;;;;20.22;52.15;102005.06;4998055;28;5278;-66
2022/08/06 05:52:52;;;;;;;;;;;;;;;20.40;51.68;102000.47;5002564;28;4233;-71
2022/08/06 05:55:19;;;;;;;;;;;;;;;20.59;51.33;102001.66;5006914;28;4243;-71
2022/08/06 05:57:59;;;;;;;;;;;;;;;20.76;50.97;102009.22;5010859;28;4016;-70
2022/08/06 06:00:26;;;;;;;;;;;;;;;20.93;50.48;102005.97;5013982;28;5504;-73
2022/08/06 06:03:13;;;;;;;;;;;;;;;20.70;50.80;102018.22;5007281;28;4193;-72
2022/08/06 06:05:51;;;;;;;;;;;;;;;20.49;51.41;102013.25;5009605;28;4222;-69
2022/08/06 06:08:35;;;;;;;;;;;;;;;20.06;52.71;102019.88;5006388;28;4164;-71
2022/08/06 06:11:07;;;;;;;;;;;;;;;20.35;51.55;102021.72;5009311;28;4191;-77
2022/08/06 06:13:35;;;;;;;;;;;;;;;20.70;50.87;102018.22;5011440;28;4461;-77
2022/08/06 06:16:39;;;;;;;;;;;;;;;20.62;51.25;102023.47;5014220;28;4185;-74
2022/08/06 06:19:20;;;;;;;;;;;;;;;20.61;51.35;102021.94;5003289;28;4603;-77
2022/08/06 06:21:52;;;;;;;;;;;;;;;20.81;50.81;102029.00;4994559;28;6215;-70
2022/08/06 06:24:35;;;;;;;;;;;;;;;20.35;51.74;102038.25;5002376;28;4288;-82
2022/08/06 06:27:18;;;;;;;;;;;;;;;20.80;50.65;102039.03;4995398;28;4445;-76
2022/08/06 06:30:06;;;;;;;;;;;;;;;20.92;50.53;102031.13;4997102;28;5431;-75
2022/08/06 06:32:56;;;;;;;;;;;;;;;20.83;50.34;102037.03;4999728;28;4313;-71
2022/08/06 06:35:30;;;;;;;;;;;;;;;20.92;50.23;102039.78;4995447;28;4354;-74
2022/08/06 06:37:59;;;;;;;;;;;;;;;20.98;49.74;102036.53;4997694;28;4095;-75
2022/08/06 06:40:42;;;;;;;;;;;;;;;20.81;49.83;102040.50;5000380;28;4186;-80
2022/08/06 06:43:24;;;;;;;;;;;;;;;20.71;49.87;102048.50;4997324;28;5260;-74
2022/08/06 06:46:06;;;;;;;;;;;;;;;20.99;49.88;102048.81;5003665;28;4286;-71
2022/08/06 06:48:54;;;;;;;;;;;;;;;20.82;50.03;102056.44;5003358;28;4255;-71
2022/08/06 06:51:42;;;;;;;;;;;;;;;20.75;49.95;102053.75;5004778;28;4202;-73
2022/08/06 06:54:30;;;;;;;;;;;;;;;20.90;49.26;102059.81;5005102;28;5278;-74
2022/08/06 06:57:01;;;;;;;;;;;;;;;20.73;49.69;102057.28;5001978;28;4253;-74
2022/08/06 06:59:32;;;;;;;;;;;;;;;20.62;50.00;102052.25;5006539;28;4211;-76
2022/08/06 07:02:20;;;;;;;;;;;;;;;20.89;49.94;102061.19;4998894;28;4533;-70
2022/08/06 07:04:49;;;;;;;;;;;;;;;21.28;49.24;102063.59;4999458;28;4746;-69
2022/08/06 07:07:15;;;;;;;;;;;;;;;21.46;48.82;102066.13;4996451;28;4413;-71
2022/08/06 07:09:50;;;;;;;;;;;;;;;21.49;48.86;102070.63;5003016;28;4534;-69
2022/08/06 07:12:25;;;;;;;;;;;;;;;21.57;49.02;102065.34;4999360;28;4330;-68
2022/08/06 07:14:58;;;;;;;;;;;;;;;21.59;48.25;102079.88;4996920;28;4247;-68
2022/08/06 07:17:27;;;;;;;;;;;;;;;21.47;48.08;102070.50;5002051;28;4481;-68
2022/08/06 07:20:13;;;;;;;;;;;;;;;21.55;48.45;102082.53;5008208;28;4372;-66
2022/08/06 07:22:42;;;;;;;;;;;;;;;21.63;47.75;102080.16;4992248;28;5663;-68
2022/08/06 07:25:29;;;;;;;;;;;;;;;21.81;47.67;102089.16;4992746;28;4224;-69
2022/08/06 07:27:55;;;;;;;;;;;;;;;21.99;47.70;102086.59;4991572;28;5236;-73
2022/08/06 07:30:25;;;;;;;;;;;;;;;21.98;47.77;102090.09;4995837;28;5263;-69
2022/08/06 07:32:54;;;;;;;;;;;;;;;21.92;48.11;102087.59;4993778;28;4245;-72
2022/08/06 07:35:20;;;;;;;;;;;;;;;21.90;48.11;102096.16;4996824;28;4141;-66
2022/08/06 07:37:49;;;;;;;;;;;;;;;21.97;47.73;102089.38;4997319;28;5519;-72
2022/08/06 07:40:18;;;;;;;;;;;;;;;22.17;47.53;102101.31;4994432;28;6328;-71
2022/08/06 07:42:44;;;;;;;;;;;;;;;22.30;47.07;102094.16;5001752;28;5375;-69
2022/08/06 07:45:12;;;;;;;;;;;;;;;22.42;46.90;102103.53;4995170;28;4420;-66
2022/08/06 07:47:42;;;;;;;;;;;;;;;22.46;46.82;102092.22;4991979;28;4267;-68
2022/08/06 07:50:20;;;;;;;;;;;;;;;22.30;47.19;102100.69;4993617;28;4787;-61
2022/08/06 07:52:49;;;;;;;;;;;;;;;22.21;47.14;102103.72;5000313;28;4266;-69
2022/08/06 07:55:17;;;;;;;;;;;;;;;22.03;47.82;102098.34;5000581;28;4240;-70
2022/08/06 07:57:44;;;;;;;;;;;;;;;22.04;47.64;102093.38;4994608;28;5273;-67
2022/08/06 08:00:24;;;;;;;;;;;;;;;22.41;46.94;102102.03;4995454;28;4216;-67
2022/08/06 08:08:46;;;;;;;;;;;;;;;22.58;45.79;102103.72;4999136;28;4233;-71
2022/08/06 08:11:13;;;;;;;;;;;;;;;22.61;45.42;102113.22;4998399;28;4276;-71
2022/08/06 08:13:40;;;;;;;;;;;;;;;22.64;45.43;102103.31;4997283;28;4126;-70
2022/08/06 08:16:11;;;;;;;;;;;;;;;22.66;45.77;102114.97;4996267;28;5356;-69
2022/08/06 08:18:45;;;;;;;;;;;;;;;22.52;45.85;102112.03;4991808;28;5236;-69
2022/08/06 08:21:12;;;;;;;;;;;;;;;21.56;47.09;102109.97;4992201;28;4066;-71
2022/08/06 08:23:40;;;;;;;;;;;;;;;21.73;46.87;102112.44;4989942;28;4256;-71
2022/08/06 08:26:11;;;;;;;;;;;;;;;21.20;47.63;102103.41;4986744;28;5719;-72
2022/08/06 08:28:38;;;;;;;;;;;;;;;21.46;47.33;102112.22;4993054;28;4980;-72
2022/08/06 08:31:07;;;;;;;;;;;;;;;21.28;47.76;102108.94;4996206;28;4413;-71
2022/08/06 08:33:46;;;;;;;;;;;;;;;21.22;47.09;102123.72;4994530;28;4203;-71
2022/08/06 08:36:12;;;;;;;;;;;;;;;21.47;46.45;102113.75;4986779;28;4273;-70
2022/08/06 08:38:40;;;;;;;;;;;;;;;21.38;46.05;102123.22;4995409;28;4309;-70
2022/08/06 08:41:15;;;;;;;;;;;;;;;20.90;46.94;102122.41;4994551;28;5384;-68
2022/08/06 08:43:49;;;;;;;;;;;;;;;21.39;46.01;102116.09;4994345;28;4085;-70
2022/08/06 08:46:33;;;;;;;;;;;;;;;21.25;45.81;102128.22;4994310;28;4117;-70
2022/08/06 08:49:07;;;;;;;;;;;;;;;21.42;45.86;102121.38;4990935;28;4521;-69
2022/08/06 08:51:41;;;;;;;;;;;;;;;21.90;45.31;102119.22;4997148;28;5001;-69
2022/08/06 08:54:09;;;;;;;;;;;;;;;22.09;45.18;102121.81;5000825;28;5739;-66
2022/08/06 08:56:37;;;;;;;;;;;;;;;22.27;45.49;102119.28;4996759;28;4263;-67
2022/08/06 08:59:23;;;;;;;;;;;;;;;22.34;45.24;102108.84;4989202;28;4201;-66
2022/08/06 09:02:09;;;;;;;;;;;;;;;22.26;45.59;102119.91;4991819;28;4491;-68
2022/08/06 09:04:36;;;;;;;;;;;;;;;22.30;44.83;102120.13;4988804;28;4191;-68
2022/08/06 09:07:03;;;;;;;;;;;;;;;22.13;45.02;102113.41;4990312;28;4162;-69
2022/08/06 09:09:34;;;;;;;;;;;;;;;22.12;44.83;102111.13;4990511;28;4531;-67
2022/08/06 09:12:01;;;;;;;;;;;;;;;22.09;44.82;102118.91;5002068;28;4206;-66
2022/08/06 09:14:47;;;;;;;;;;;;;;;22.11;44.84;102124.06;4996753;28;5313;-66
2022/08/06 09:17:14;;;;;;;;;;;;;;;22.44;44.90;102120.22;4996645;28;5153;-65
2022/08/06 09:20:00;;;;;;;;;;;;;;;22.65;44.40;102114.22;4999876;28;4126;-65
2022/08/06 09:22:27;;;;;;;;;;;;;;;22.70;43.76;102110.19;4997962;28;4050;-65
2022/08/06 09:24:54;;;;;;;;;;;;;;;22.65;43.97;102116.34;4992980;28;5082;-69
2022/08/06 09:27:21;;;;;;;;;;;;;;;22.52;43.56;102115.66;4997607;28;4236;-66
2022/08/06 09:30:07;;;;;;;;;;;;;;;22.44;43.91;102117.34;4992919;28;5328;-65
2022/08/06 09:32:53;;;;;;;;;;;;;;;22.39;43.68;102122.13;4992471;28;5405;-66
2022/08/06 09:35:23;;;;;;;;;;;;;;;22.31;43.23;102136.06;4993564;28;5440;-66
2022/08/06 09:38:09;;;;;;;;;;;;;;;22.29;43.31;102125.16;4993515;28;4247;-66
2022/08/06 09:40:36;;;;;;;;;;;;;;;22.28;43.02;102129.41;4994813;28;4347;-65
2022/08/06 09:43:02;;;;;;;;;;;;;;;22.27;43.19;102138.72;4992652;28;4304;-66
2022/08/06 09:45:29;;;;;;;;;;;;;;;22.26;42.59;102129.31;4992980;28;4215;-66
2022/08/06 09:48:09;;;;;;;;;;;;;;;22.29;42.97;102136.72;4989231;28;4315;-66
2022/08/06 09:50:47;;;;;;;;;;;;;;;22.29;42.62;102139.59;4991680;28;5224;-66
2022/08/06 09:53:17;;;;;;;;;;;;;;;22.29;42.32;102130.94;4991731;28;4205;-65
2022/08/06 09:55:47;;;;;;;;;;;;;;;22.29;42.33;102139.59;4996477;28;4222;-66
2022/08/06 09:58:13;;;;;;;;;;;;;;;22.30;42.13;102132.44;4998210;28;4236;-66
2022/08/06 10:00:43;;;;;;;;;;;;;;;22.30;42.00;102128.81;4999081;28;4325;-66
2022/08/06 10:03:16;;;;;;;;;;;;;;;22.32;41.86;102131.81;4995192;28;4171;-65
2022/08/06 10:06:03;;;;;;;;;;;;;;;22.59;42.22;102129.06;4998711;28;4663;-66
2022/08/06 10:08:29;;;;;;;;;;;;;;;22.77;41.70;102125.72;5008213;28;5239;-70
2022/08/06 10:11:00;;;;;;;;;;;;;;;22.82;41.52;102135.38;5001917;28;5269;-64
2022/08/06 10:13:32;;;;;;;;;;;;;;;22.87;40.98;102140.72;4998795;28;5697;-65
2022/08/06 10:16:26;;;;;;;;;;;;;;;22.97;41.07;102128.97;5003366;28;5136;-63
2022/08/06 10:18:55;;;;;;;;;;;;;;;22.94;40.70;102144.72;4996559;28;5380;-61
2022/08/06 10:21:32;;;;;;;;;;;;;;;23.06;40.72;102138.88;4998044;28;4201;-65
2022/08/06 10:24:12;;;;;;;;;;;;;;;23.08;39.98;102136.09;4994003;28;4357;-62
2022/08/06 10:26:50;;;;;;;;;;;;;;;23.10;39.92;102133.34;5001083;28;4183;-65
2022/08/06 10:29:17;;;;;;;;;;;;;;;23.10;39.70;102127.56;4983273;28;4890;-67
2022/08/06 10:31:48;;;;;;;;;;;;;;;23.21;39.47;102126.72;5006606;28;5426;-65
2022/08/06 10:34:23;;;;;;;;;;;;;;;23.23;39.39;102134.75;4997687;28;4372;-65
2022/08/06 10:36:58;;;;;;;;;;;;;;;23.25;39.27;102144.28;4997609;28;4290;-64
2022/08/06 10:39:25;;;;;;;;;;;;;;;23.33;39.53;102138.19;4995030;28;4336;-65
2022/08/06 10:42:12;;;;;;;;;;;;;;;23.36;39.37;102143.44;4998939;28;4212;-67
2022/08/06 10:44:47;;;;;;;;;;;;;;;23.34;39.57;102146.25;5001032;28;4181;-64
2022/08/06 10:47:16;;;;;;;;;;;;;;;23.37;39.08;102144.22;5002403;28;4063;-68
2022/08/06 10:50:02;;;;;;;;;;;;;;;23.03;40.10;102137.28;5001489;28;4224;-67
2022/08/06 10:52:48;;;;;;;;;;;;;;;23.35;39.80;102129.63;4997514;28;4257;-65
2022/08/06 10:55:15;;;;;;;;;;;;;;;23.33;39.64;102133.16;4999242;28;5497;-68
2022/08/06 10:57:41;;;;;;;;;;;;;;;23.38;39.37;102134.88;4997444;28;4383;-70
2022/08/06 11:00:08;;;;;;;;;;;;;;;23.07;39.91;102134.63;4985457;28;4314;-66
2022/08/06 11:02:40;;;;;;;;;;;;;;;23.24;40.06;102136.25;4995624;28;4347;-75
2022/08/06 11:05:22;;;;;;;;;;;;;;;23.20;40.05;102120.22;4994634;28;4569;-70
2022/08/06 11:07:58;;;;;;;;;;;;;;;23.46;39.46;102125.16;4997320;28;4178;-65
2022/08/06 11:10:47;;;;;;;;;;;;;;;24.18;37.98;102118.81;4991805;28;5788;-69
2022/08/06 11:13:17;;;;;;;;;;;;;;;24.72;37.25;102115.66;5006307;28;5359;-76
2022/08/06 11:15:43;;;;;;;;;;;;;;;24.71;37.35;102125.75;5005393;28;4143;-73
2022/08/06 11:18:11;;;;;;;;;;;;;;;24.66;37.20;102107.41;5002695;28;4230;-71
2022/08/06 11:20:47;;;;;;;;;;;;;;;24.69;37.91;102116.94;5004993;28;4078;-73
2022/08/06 11:23:15;;;;;;;;;;;;;;;24.45;38.10;102117.22;4998641;28;4217;-70
2022/08/06 11:26:01;;;;;;;;;;;;;;;23.92;38.38;102108.78;5008648;28;4292;-70
2022/08/06 11:28:33;;;;;;;;;;;;;;;23.64;38.37;102120.34;4997385;28;4487;-71
2022/08/06 11:31:00;;;;;;;;;;;;;;;23.67;39.03;102124.09;4999071;28;4633;-69
2022/08/06 11:33:51;;;;;;;;;;;;;;;23.62;39.45;102128.91;4997078;28;4607;-70
2022/08/06 11:36:24;;;;;;;;;;;;;;;23.54;40.15;102116.91;5004908;28;4152;-66
2022/08/06 11:38:54;;;;;;;;;;;;;;;23.76;39.38;102114.47;5008181;28;4237;-72
2022/08/06 11:41:28;;;;;;;;;;;;;;;23.71;39.59;102107.72;5006252;28;4341;-74
2022/08/06 11:44:18;;;;;;;;;;;;;;;23.68;39.16;102094.53;5003695;28;4215;-71
2022/08/06 11:47:05;;;;;;;;;;;;;;;23.73;39.75;102087.56;5001999;28;4099;-63
2022/08/06 11:49:41;;;;;;;;;;;;;;;23.84;40.20;102109.09;5004675;28;4035;-73
2022/08/06 11:52:28;;;;;;;;;;;;;;;23.93;40.20;102104.50;5006247;28;5252;-71
2022/08/06 11:55:04;;;;;;;;;;;;;;;24.03;40.37;102116.59;5008735;28;4097;-70
2022/08/06 11:57:34;;;;;;;;;;;;;;;23.92;40.94;102105.91;5009160;28;5757;-74
2022/08/06 12:00:14;;;;;;;;;;;;;;;23.91;41.16;102108.03;5001495;28;5352;-77
2022/08/06 12:02:41;;;;;;;;;;;;;;;23.93;41.33;102113.91;5002122;28;4245;-74
2022/08/06 12:05:15;;;;;;;;;;;;;;;23.91;41.53;102116.69;4994601;28;4168;-71
2022/08/06 12:07:45;;;;;;;;;;;;;;;23.83;41.50;102125.72;4993820;28;4027;-72
2022/08/06 12:10:17;;;;;;;;;;;;;;;23.87;42.01;102118.63;4997279;28;4241;-69
2022/08/06 12:12:54;;;;;;;;;;;;;;;23.90;41.95;102111.56;4997535;28;4084;-76
2022/08/06 12:15:28;;;;;;;;;;;;;;;23.95;42.14;102104.59;5000774;28;4323;-69
2022/08/06 12:18:15;;;;;;;;;;;;;;;23.85;41.93;102101.19;4992000;28;4239;-65
2022/08/06 12:20:54;;;;;;;;;;;;;;;23.66;38.81;102111.00;4985983;28;4513;-77
2022/08/06 12:23:23;;;;;;;;;;;;;;;23.51;39.19;102107.38;4987470;28;4436;-75
2022/08/06 12:26:10;;;;;;;;;;;;;;;23.41;37.97;102113.38;4980880;28;4228;-77
2022/08/06 12:28:36;;;;;;;;;;;;;;;23.35;38.01;102113.03;4991416;28;4224;-76
2022/08/06 12:31:03;;;;;;;;;;;;;;;23.33;37.29;102107.16;4992708;28;4156;-76
2022/08/06 12:33:50;;;;;;;;;;;;;;;23.31;37.48;102104.16;4990330;28;5241;-76
2022/08/06 12:36:16;;;;;;;;;;;;;;;23.35;37.63;102103.63;4983572;28;4238;-73
2022/08/06 12:39:01;;;;;;;;;;;;;;;23.34;38.45;102110.78;4991612;28;4131;-74
2022/08/06 12:41:32;;;;;;;;;;;;;;;23.33;38.66;102110.03;4991209;28;4250;-73
2022/08/06 12:44:13;;;;;;;;;;;;;;;23.32;38.84;102105.66;4992896;28;4221;-73
2022/08/06 12:46:40;;;;;;;;;;;;;;;23.27;38.97;102101.03;4992468;28;5359;-67
2022/08/06 12:49:08;;;;;;;;;;;;;;;23.03;38.15;102103.34;4993777;28;4184;-69
2022/08/06 12:51:35;;;;;;;;;;;;;;;22.92;37.76;102107.03;4994099;28;4232;-69
2022/08/06 12:54:03;;;;;;;;;;;;;;;22.82;37.06;102104.34;4992462;28;4243;-70
2022/08/06 12:56:30;;;;;;;;;;;;;;;22.30;36.40;102097.81;4994873;28;4198;-70
2022/08/06 12:59:02;;;;;;;;;;;;;;;22.67;36.82;102099.88;4995289;28;4246;-69
2022/08/06 13:01:30;;;;;;;;;;;;;;;22.49;36.18;102102.47;4999405;28;4160;-69
2022/08/06 13:04:17;;;;;;;;;;;;;;;22.77;36.07;102093.97;4994067;28;5349;-68
2022/08/06 13:06:43;;;;;;;;;;;;;;;22.59;34.91;102088.66;4990939;28;4020;-69
2022/08/06 13:09:14;;;;;;;;;;;;;;;22.84;34.81;102084.25;4991601;28;4216;-70
2022/08/06 13:11:40;;;;;;;;;;;;;;;22.97;35.28;102086.38;4994526;28;4239;-70
2022/08/06 13:14:12;;;;;;;;;;;;;;;22.89;34.79;102079.44;4984571;28;4331;-68
2022/08/06 13:16:44;;;;;;;;;;;;;;;23.05;35.32;102091.16;4995214;28;5365;-70
2022/08/06 13:19:21;;;;;;;;;;;;;;;22.76;35.79;102095.31;4996889;28;5284;-69
2022/08/06 13:22:06;;;;;;;;;;;;;;;22.79;35.78;102091.16;4993721;28;4251;-70
2022/08/06 13:24:32;;;;;;;;;;;;;;;22.54;34.89;102091.91;4991306;28;5479;-70
2022/08/06 13:27:01;;;;;;;;;;;;;;;22.57;35.77;102091.41;4994540;28;5314;-72
2022/08/06 13:29:31;;;;;;;;;;;;;;;22.62;36.05;102100.31;4995354;28;4325;-72
2022/08/06 13:32:17;;;;;;;;;;;;;;;22.55;36.11;102102.84;4989447;28;5370;-72